createdAt,value
2019-03-09T00:00:44.302Z,4.47
2019-03-09T00:03:12.931Z,3.57
2019-03-09T00:05:41.458Z,3.60
2019-03-09T00:08:14.860Z,3.57
2019-03-09T00:10:43.389Z,3.43
2019-03-09T00:13:12.135Z,3.33
2019-03-09T00:15:40.740Z,3.80
2019-03-09T00:18:09.142Z,3.87
2019-03-09T00:20:37.577Z,3.20
2019-03-09T00:23:20.026Z,3.90
2019-03-09T00:26:06.231Z,3.37
2019-03-09T00:28:36.445Z,3.30
2019-03-09T00:31:06.595Z,3.53
2019-03-09T00:33:35.174Z,3.77
2019-03-09T00:36:03.732Z,3.40
2019-03-09T00:38:32.313Z,3.63
2019-03-09T00:41:00.739Z,3.73
2019-03-09T00:43:29.246Z,3.00
2019-03-09T00:45:57.933Z,3.10
2019-03-09T00:48:26.516Z,3.93
2019-03-09T00:50:55.181Z,3.70
2019-03-09T00:53:24.075Z,3.70
2019-03-09T00:55:52.474Z,3.60
2019-03-09T00:58:20.962Z,3.90
2019-03-09T01:00:49.407Z,3.57
2019-03-09T01:03:17.841Z,3.37
2019-03-09T01:05:46.227Z,3.30
2019-03-09T01:08:14.650Z,3.37
2019-03-09T01:10:43.055Z,3.70
2019-03-09T01:13:11.567Z,3.33
2019-03-09T01:15:40.563Z,3.30
2019-03-09T01:18:09.039Z,3.77
2019-03-09T01:20:37.513Z,3.13
2019-03-09T01:23:05.917Z,3.47
2019-03-09T01:25:34.337Z,3.00
2019-03-09T01:28:02.815Z,3.43
2019-03-09T01:30:31.231Z,3.67
2019-03-09T01:32:59.646Z,3.37
2019-03-09T01:35:28.197Z,2.97
2019-03-09T01:37:56.687Z,3.20
2019-03-09T01:40:25.109Z,2.90
2019-03-09T01:42:53.508Z,3.33
2019-03-09T01:45:22.217Z,3.60
2019-03-09T01:47:50.642Z,3.83
2019-03-09T01:50:19.046Z,3.57
2019-03-09T01:52:47.480Z,3.67
2019-03-09T01:55:15.890Z,3.63
2019-03-09T01:57:44.295Z,3.67
2019-03-09T02:00:18.702Z,4.03
2019-03-09T02:02:47.245Z,4.00
2019-03-09T02:05:18.988Z,3.77
2019-03-09T02:07:47.437Z,4.73
2019-03-09T02:10:17.360Z,4.70
2019-03-09T02:12:45.778Z,3.87
2019-03-09T02:15:15.750Z,4.33
2019-03-09T02:17:44.861Z,4.60
2019-03-09T02:20:17.361Z,4.47
2019-03-09T02:22:45.754Z,4.67
2019-03-09T02:25:15.461Z,4.47
2019-03-09T02:27:43.890Z,4.30
2019-03-09T02:30:19.646Z,4.17
2019-03-09T02:32:48.076Z,4.13
2019-03-09T02:35:18.117Z,4.83
2019-03-09T02:37:46.553Z,3.70
2019-03-09T02:40:19.358Z,4.67
2019-03-09T02:42:47.810Z,4.20
2019-03-09T02:45:18.954Z,3.60
2019-03-09T02:47:47.324Z,4.53
2019-03-09T02:50:16.999Z,5.47
2019-03-09T02:52:45.529Z,4.20
2019-03-09T02:55:14.518Z,4.37
2019-03-09T02:57:43.097Z,4.17
2019-03-09T03:00:17.602Z,4.10
2019-03-09T03:02:47.681Z,3.87
2019-03-09T03:05:16.323Z,4.00
2019-03-09T03:07:44.903Z,3.80
2019-03-09T03:10:13.441Z,4.53
2019-03-09T03:12:41.845Z,4.00
2019-03-09T03:15:12.785Z,3.73
2019-03-09T03:17:41.253Z,4.13
2019-03-09T03:20:10.059Z,3.87
2019-03-09T03:22:38.477Z,3.00
2019-03-09T03:25:07.843Z,3.37
2019-03-09T03:27:36.229Z,3.07
2019-03-09T03:30:07.010Z,3.20
2019-03-09T03:32:36.277Z,2.97
2019-03-09T03:35:06.847Z,3.43
2019-03-09T03:37:35.276Z,3.83
2019-03-09T03:40:05.228Z,2.97
2019-03-09T03:42:33.637Z,3.53
2019-03-09T03:45:02.046Z,3.30
2019-03-09T03:47:30.465Z,3.20
2019-03-09T03:49:58.902Z,2.83
2019-03-09T03:52:27.323Z,2.93
2019-03-09T03:54:55.728Z,3.13
2019-03-09T03:57:24.156Z,3.10
2019-03-09T03:59:52.553Z,3.87
2019-03-09T04:02:21.129Z,3.63
2019-03-09T04:04:49.626Z,3.50
2019-03-09T04:07:18.014Z,3.23
2019-03-09T04:09:46.531Z,3.60
2019-03-09T04:12:15.298Z,3.03
2019-03-09T04:14:43.841Z,3.20
2019-03-09T04:17:12.302Z,2.90
2019-03-09T04:19:40.688Z,3.37
2019-03-09T04:22:09.098Z,3.30
2019-03-09T04:24:40.299Z,3.40
2019-03-09T04:27:08.675Z,4.17
2019-03-09T04:29:37.096Z,3.47
2019-03-09T04:32:05.525Z,3.80
2019-03-09T04:34:34.019Z,4.40
2019-03-09T04:37:02.449Z,3.90
2019-03-09T04:39:30.908Z,4.17
2019-03-09T04:41:59.387Z,4.60
2019-03-09T04:44:27.795Z,3.93
2019-03-09T04:46:56.207Z,4.20
2019-03-09T04:49:24.664Z,3.30
2019-03-09T04:51:53.057Z,4.30
2019-03-09T04:54:21.463Z,4.10
2019-03-09T04:56:49.916Z,3.37
2019-03-09T04:59:18.328Z,3.33
2019-03-09T05:01:46.758Z,3.83
2019-03-09T05:04:27.231Z,3.37
2019-03-09T05:06:55.654Z,2.93
2019-03-09T05:10:00.292Z,3.60
2019-03-09T05:12:28.658Z,3.30
2019-03-09T05:14:57.069Z,3.57
2019-03-09T05:17:25.493Z,3.20
2019-03-09T05:19:53.906Z,3.73
2019-03-09T05:22:22.320Z,3.47
2019-03-09T05:24:50.738Z,3.10
2019-03-09T05:27:19.192Z,3.37
2019-03-09T05:29:47.613Z,3.30
2019-03-09T05:32:16.021Z,2.77
2019-03-09T05:34:44.447Z,3.30
2019-03-09T05:37:12.874Z,3.50
2019-03-09T05:39:41.290Z,3.20
2019-03-09T05:42:09.732Z,2.90
2019-03-09T05:44:38.150Z,2.70
2019-03-09T05:47:06.582Z,2.63
2019-03-09T05:49:34.993Z,2.57
2019-03-09T05:52:24.536Z,2.73
2019-03-09T05:54:52.947Z,2.70
2019-03-09T05:57:21.368Z,2.70
2019-03-09T05:59:49.857Z,3.03
2019-03-09T06:02:18.365Z,3.20
2019-03-09T06:04:46.782Z,2.00
2019-03-09T06:07:15.228Z,2.93
2019-03-09T06:09:43.642Z,2.53
2019-03-09T06:12:12.042Z,2.40
2019-03-09T06:14:40.470Z,2.50
2019-03-09T06:17:08.886Z,2.53
2019-03-09T06:19:37.729Z,2.60
2019-03-09T06:22:06.256Z,2.40
2019-03-09T06:24:34.703Z,2.47
2019-03-09T06:27:03.161Z,2.00
2019-03-09T06:29:31.559Z,2.00
2019-03-09T06:32:31.850Z,2.20
2019-03-09T06:35:00.423Z,2.30
2019-03-09T06:37:29.519Z,2.27
2019-03-09T06:39:58.110Z,2.13
2019-03-09T06:42:35.845Z,1.90
2019-03-09T06:45:06.321Z,2.40
2019-03-09T06:47:34.722Z,1.90
2019-03-09T06:50:03.348Z,2.37
2019-03-09T06:52:31.786Z,1.97
2019-03-09T06:55:00.313Z,2.20
2019-03-09T06:57:28.713Z,1.73
2019-03-09T06:59:57.136Z,2.20
2019-03-09T07:02:25.587Z,2.00
2019-03-09T07:04:54.023Z,2.63
2019-03-09T07:07:22.441Z,2.30
2019-03-09T07:09:50.870Z,2.50
2019-03-09T07:12:19.370Z,2.70
2019-03-09T07:14:59.971Z,2.70
2019-03-09T07:17:28.474Z,3.00
2019-03-09T07:19:57.391Z,3.10
2019-03-09T07:22:26.258Z,2.83
2019-03-09T07:24:55.170Z,2.73
2019-03-09T07:27:23.782Z,3.27
2019-03-09T07:29:53.612Z,2.87
2019-03-09T07:32:22.255Z,2.77
2019-03-09T07:34:50.904Z,3.20
2019-03-09T07:37:19.595Z,2.60
2019-03-09T07:39:48.191Z,2.77
2019-03-09T07:42:16.686Z,2.80
2019-03-09T07:44:45.402Z,3.53
2019-03-09T07:47:15.305Z,2.93
2019-03-09T07:49:43.904Z,2.97
2019-03-09T07:52:30.666Z,3.37
2019-03-09T07:54:59.154Z,3.00
2019-03-09T07:57:27.562Z,3.20
2019-03-09T07:59:56.077Z,2.93
2019-03-09T08:02:24.497Z,3.17
2019-03-09T08:04:52.939Z,3.00
2019-03-09T08:07:21.422Z,3.10
2019-03-09T08:09:49.856Z,3.20
2019-03-09T08:12:18.424Z,2.50
2019-03-09T08:14:46.936Z,2.73
2019-03-09T08:17:15.608Z,2.53
2019-03-09T08:19:44.093Z,2.63
2019-03-09T08:22:12.807Z,3.10
2019-03-09T08:24:41.236Z,2.27
2019-03-09T08:27:09.840Z,2.73
2019-03-09T08:29:38.232Z,2.70
2019-03-09T08:32:06.661Z,2.93
2019-03-09T08:34:35.151Z,2.47
2019-03-09T08:37:03.607Z,2.80
2019-03-09T08:39:31.985Z,2.90
2019-03-09T08:42:01.217Z,2.67
2019-03-09T08:44:29.660Z,2.80
2019-03-09T08:46:58.223Z,2.30
2019-03-09T08:49:26.784Z,2.50
2019-03-09T08:51:57.523Z,3.60
2019-03-09T08:54:25.963Z,2.40
2019-03-09T08:56:54.396Z,3.20
2019-03-09T08:59:22.865Z,2.87
2019-03-09T09:01:51.405Z,2.63
2019-03-09T09:04:19.796Z,2.37
2019-03-09T09:06:48.239Z,2.90
2019-03-09T09:09:16.649Z,2.97
2019-03-09T09:11:45.052Z,2.87
2019-03-09T09:14:14.722Z,2.60
2019-03-09T09:16:43.149Z,2.70
2019-03-09T09:19:11.592Z,2.83
2019-03-09T09:21:39.989Z,2.57
2019-03-09T09:24:08.394Z,3.10
2019-03-09T09:26:36.877Z,3.07
2019-03-09T09:29:05.279Z,2.63
2019-03-09T09:31:33.808Z,2.60
2019-03-09T09:34:02.308Z,2.67
2019-03-09T09:36:30.706Z,3.03
2019-03-09T09:38:59.153Z,3.43
2019-03-09T09:41:27.565Z,2.80
2019-03-09T09:43:55.976Z,4.30
2019-03-09T09:46:24.523Z,3.30
2019-03-09T09:48:52.958Z,3.07
2019-03-09T09:51:21.449Z,2.43
2019-03-09T09:53:49.882Z,2.73
2019-03-09T09:56:18.284Z,3.10
2019-03-09T09:58:46.762Z,2.77
2019-03-09T10:01:15.168Z,2.87
2019-03-09T10:03:43.607Z,3.10
2019-03-09T10:06:12.075Z,3.00
2019-03-09T10:08:40.476Z,2.63
2019-03-09T10:11:08.894Z,2.90
2019-03-09T10:13:37.339Z,3.70
2019-03-09T10:16:05.850Z,2.70
2019-03-09T10:18:34.248Z,3.53
2019-03-09T10:21:02.666Z,3.07
2019-03-09T10:23:31.079Z,2.73
2019-03-09T10:25:59.529Z,2.63
2019-03-09T10:28:27.947Z,2.60
2019-03-09T10:30:56.396Z,2.93
2019-03-09T10:33:24.833Z,2.93
2019-03-09T10:35:53.243Z,3.27
2019-03-09T10:38:21.762Z,2.83
2019-03-09T10:40:50.177Z,3.20
2019-03-09T10:43:18.601Z,3.37
2019-03-09T10:45:47.060Z,2.60
2019-03-09T10:48:15.472Z,3.60
2019-03-09T10:50:43.927Z,3.63
2019-03-09T10:53:12.392Z,3.43
2019-03-09T10:55:42.555Z,4.00
2019-03-09T10:58:10.943Z,4.60
2019-03-09T11:00:41.950Z,4.03
2019-03-09T11:03:10.416Z,3.80
2019-03-09T11:05:38.950Z,3.50
2019-03-09T11:08:07.479Z,4.77
2019-03-09T11:10:35.949Z,3.30
2019-03-09T11:13:04.452Z,3.80
2019-03-09T11:15:33.072Z,4.83
2019-03-09T11:18:01.509Z,4.67
2019-03-09T11:20:29.926Z,5.13
2019-03-09T11:23:01.288Z,5.47
2019-03-09T11:25:29.719Z,5.43
2019-03-09T11:28:10.028Z,5.40
2019-03-09T11:30:39.407Z,5.53
2019-03-09T11:33:07.826Z,5.67
2019-03-09T11:35:36.281Z,5.23
2019-03-09T11:38:04.720Z,5.67
2019-03-09T11:40:33.152Z,6.10
2019-03-09T11:43:01.572Z,5.77
2019-03-09T11:45:29.989Z,6.23
2019-03-09T11:47:58.405Z,5.70
2019-03-09T11:50:26.853Z,6.30
2019-03-09T11:52:55.303Z,5.20
2019-03-09T11:55:23.711Z,5.93
2019-03-09T11:57:52.233Z,5.57
2019-03-09T12:00:26.648Z,4.97
2019-03-09T12:02:55.238Z,5.50
2019-03-09T12:05:23.669Z,5.10
2019-03-09T12:07:52.082Z,5.40
2019-03-09T12:10:20.713Z,5.70
2019-03-09T12:12:49.205Z,5.13
2019-03-09T12:15:18.671Z,5.10
2019-03-09T12:17:47.117Z,6.00
2019-03-09T12:20:19.006Z,5.30
2019-03-09T12:22:48.057Z,5.17
2019-03-09T12:25:17.730Z,5.03
2019-03-09T12:27:46.273Z,5.13
2019-03-09T12:30:18.927Z,4.60
2019-03-09T12:32:49.188Z,3.90
2019-03-09T12:35:17.714Z,4.60
2019-03-09T12:37:46.251Z,4.93
2019-03-09T12:40:19.554Z,4.13
2019-03-09T12:42:47.925Z,4.57
2019-03-09T12:45:17.516Z,4.37
2019-03-09T12:47:46.163Z,4.93
2019-03-09T12:50:17.639Z,4.87
2019-03-09T12:52:46.080Z,4.70
2019-03-09T12:55:14.861Z,4.07
2019-03-09T12:57:43.660Z,4.30
2019-03-09T13:00:15.208Z,4.13
2019-03-09T13:02:43.667Z,3.83
2019-03-09T13:05:12.136Z,3.30
2019-03-09T13:07:40.614Z,3.60
2019-03-09T13:10:09.828Z,3.53
2019-03-09T13:12:38.371Z,3.20
2019-03-09T13:15:08.843Z,3.10
2019-03-09T13:17:37.336Z,2.60
2019-03-09T13:20:08.476Z,2.70
2019-03-09T13:22:36.932Z,2.90
2019-03-09T13:25:08.287Z,2.90
2019-03-09T13:27:36.722Z,2.50
2019-03-09T13:30:08.451Z,2.73
2019-03-09T13:32:36.875Z,2.70
2019-03-09T13:35:05.535Z,2.60
2019-03-09T13:37:33.991Z,1.93
2019-03-09T13:40:02.459Z,2.33
2019-03-09T13:42:30.883Z,2.27
2019-03-09T13:44:59.585Z,1.80
2019-03-09T13:47:28.057Z,2.13
2019-03-09T13:49:56.607Z,2.00
2019-03-09T13:52:25.044Z,1.90
2019-03-09T13:54:53.510Z,1.80
2019-03-09T13:57:23.447Z,2.47
2019-03-09T13:59:51.892Z,2.03
2019-03-09T14:02:20.874Z,2.17
2019-03-09T14:04:49.286Z,2.20
2019-03-09T14:07:17.820Z,1.80
2019-03-09T14:09:46.413Z,2.10
2019-03-09T14:12:15.001Z,2.17
2019-03-09T14:14:43.426Z,1.90
2019-03-09T14:17:11.909Z,1.60
2019-03-09T14:19:40.456Z,1.40
2019-03-09T14:22:09.391Z,1.40
2019-03-09T14:24:38.709Z,1.33
2019-03-09T14:27:07.214Z,1.80
2019-03-09T14:29:37.730Z,1.47
2019-03-09T14:32:06.247Z,1.80
2019-03-09T14:34:34.690Z,3.43
2019-03-09T14:37:03.683Z,3.27
2019-03-09T14:39:32.168Z,3.40
2019-03-09T14:42:00.720Z,3.40
2019-03-09T14:44:29.213Z,4.40
2019-03-09T14:46:57.653Z,3.77
2019-03-09T14:49:26.130Z,4.17
2019-03-09T14:51:54.774Z,4.27
2019-03-09T14:54:23.832Z,4.80
2019-03-09T14:56:52.252Z,5.10
2019-03-09T14:59:20.812Z,4.73
2019-03-09T15:01:49.333Z,4.70
2019-03-09T15:04:17.758Z,5.00
2019-03-09T15:06:46.329Z,5.53
2019-03-09T15:09:15.688Z,5.00
2019-03-09T15:11:44.091Z,5.67
2019-03-09T15:14:12.526Z,6.40
2019-03-09T15:16:40.953Z,5.50
2019-03-09T15:19:10.649Z,5.57
2019-03-09T15:21:39.063Z,6.23
2019-03-09T15:24:08.252Z,6.00
2019-03-09T15:26:36.751Z,6.73
2019-03-09T15:29:05.152Z,7.47
2019-03-09T15:31:33.585Z,6.40
2019-03-09T15:34:02.032Z,6.50
2019-03-09T15:36:30.438Z,6.93
2019-03-09T15:38:58.877Z,6.73
2019-03-09T15:41:27.283Z,6.47
2019-03-09T15:43:55.730Z,6.60
2019-03-09T15:46:24.299Z,7.43
2019-03-09T15:48:52.796Z,7.10
2019-03-09T15:51:21.239Z,7.73
2019-03-09T15:53:49.682Z,7.43
2019-03-09T15:56:18.079Z,8.77
2019-03-09T15:58:46.540Z,7.20
2019-03-09T16:01:15.071Z,7.57
2019-03-09T16:03:43.541Z,5.00
2019-03-09T16:06:11.959Z,4.30
2019-03-09T16:08:40.471Z,4.23
2019-03-09T16:11:08.911Z,4.57
2019-03-09T16:13:37.691Z,4.00
2019-03-09T16:16:06.811Z,4.30
2019-03-09T16:18:35.437Z,4.60
2019-03-09T16:21:04.034Z,4.47
2019-03-09T16:23:32.742Z,2.73
2019-03-09T16:26:01.436Z,2.33
2019-03-09T16:28:29.927Z,2.63
2019-03-09T16:30:58.600Z,2.20
2019-03-09T16:33:27.354Z,2.30
2019-03-09T16:35:56.093Z,2.47
2019-03-09T16:38:24.771Z,2.80
2019-03-09T16:40:53.219Z,2.30
2019-03-09T16:43:22.340Z,2.73
2019-03-09T16:45:51.021Z,2.93
2019-03-09T16:48:19.618Z,2.50
2019-03-09T16:50:48.398Z,3.40
2019-03-09T16:53:17.611Z,3.87
2019-03-09T16:55:47.902Z,3.27
2019-03-09T16:58:16.637Z,3.97
2019-03-09T17:00:45.264Z,3.33
2019-03-09T17:03:13.936Z,3.57
2019-03-09T17:05:42.422Z,3.60
2019-03-09T17:08:11.117Z,4.00
2019-03-09T17:10:39.623Z,3.47
2019-03-09T17:13:08.054Z,3.70
2019-03-09T17:15:37.105Z,3.40
2019-03-09T17:18:05.790Z,2.20
2019-03-09T17:20:34.242Z,2.00
2019-03-09T17:23:02.785Z,2.10
2019-03-09T17:25:32.150Z,2.00
2019-03-09T17:28:00.611Z,2.07
2019-03-09T17:30:29.083Z,1.93
2019-03-09T17:32:57.587Z,2.10
2019-03-09T17:35:27.642Z,1.97
2019-03-09T17:37:56.080Z,1.60
2019-03-09T17:40:24.677Z,1.60
2019-03-09T17:42:53.106Z,1.57
2019-03-09T17:45:24.565Z,1.30
2019-03-09T17:47:53.169Z,1.67
2019-03-09T17:50:21.669Z,1.50
2019-03-09T17:52:50.097Z,1.40
2019-03-09T17:55:18.534Z,1.40
2019-03-09T17:57:46.997Z,1.30
2019-03-09T18:00:21.337Z,1.50
2019-03-09T18:02:49.762Z,1.50
2019-03-09T18:05:20.070Z,1.60
2019-03-09T18:07:48.715Z,1.97
2019-03-09T18:10:41.539Z,1.60
2019-03-09T18:13:10.028Z,1.60
2019-03-09T18:15:38.445Z,1.53
2019-03-09T18:18:07.666Z,1.73
2019-03-09T18:20:36.189Z,1.50
2019-03-09T18:23:04.616Z,2.00
2019-03-09T18:25:33.030Z,1.80
2019-03-09T18:28:01.433Z,1.80
2019-03-09T18:30:30.927Z,1.80
2019-03-09T18:32:59.350Z,1.90
2019-03-09T18:35:27.879Z,2.03
2019-03-09T18:37:56.318Z,2.13
2019-03-09T18:40:24.795Z,2.00
2019-03-09T18:42:53.483Z,2.10
2019-03-09T18:45:23.155Z,1.80
2019-03-09T18:47:51.573Z,2.00
2019-03-09T18:50:20.148Z,1.83
2019-03-09T18:52:48.562Z,2.50
2019-03-09T18:55:17.065Z,1.80
2019-03-09T18:57:45.495Z,1.90
2019-03-09T19:00:21.251Z,1.63
2019-03-09T19:02:49.967Z,1.80
2019-03-09T19:05:18.591Z,2.43
2019-03-09T19:07:47.062Z,1.90
2019-03-09T19:10:17.415Z,2.03
2019-03-09T19:12:45.850Z,1.97
2019-03-09T19:15:16.317Z,2.10
2019-03-09T19:17:44.826Z,1.87
2019-03-09T19:20:17.865Z,2.83
2019-03-09T19:22:46.587Z,2.10
2019-03-09T19:25:15.951Z,2.07
2019-03-09T19:27:44.551Z,2.17
2019-03-09T19:30:18.377Z,2.13
2019-03-09T19:32:46.863Z,1.90
2019-03-09T19:35:15.350Z,1.77
2019-03-09T19:37:43.783Z,2.20
2019-03-09T19:40:17.648Z,1.90
2019-03-09T19:42:46.728Z,2.00
2019-03-09T19:45:22.505Z,1.90
2019-03-09T19:47:51.039Z,1.80
2019-03-09T19:50:22.564Z,2.30
2019-03-09T19:52:50.950Z,2.10
2019-03-09T19:55:19.364Z,2.33
2019-03-09T19:57:47.808Z,2.07
2019-03-09T20:00:18.598Z,2.13
2019-03-09T20:02:47.001Z,2.63
2019-03-09T20:05:15.681Z,1.87
2019-03-09T20:07:44.229Z,2.23
2019-03-09T20:10:23.093Z,2.53
2019-03-09T20:12:51.755Z,2.27
2019-03-09T20:15:21.959Z,4.17
2019-03-09T20:17:50.390Z,2.27
2019-03-09T20:20:21.183Z,2.67
2019-03-09T20:22:49.690Z,2.50
2019-03-09T20:25:18.186Z,2.53
2019-03-09T20:27:46.886Z,2.00
2019-03-09T20:30:19.687Z,2.20
2019-03-09T20:32:48.178Z,2.20
2019-03-09T20:35:16.742Z,2.60
2019-03-09T20:37:45.171Z,2.20
2019-03-09T20:40:18.774Z,2.27
2019-03-09T20:42:47.443Z,3.20
2019-03-09T20:45:21.683Z,2.00
2019-03-09T20:47:50.105Z,2.10
2019-03-09T20:50:20.907Z,2.20
2019-03-09T20:52:51.210Z,2.50
2019-03-09T20:55:19.602Z,1.83
2019-03-09T20:57:48.040Z,2.10
2019-03-09T21:00:18.332Z,2.00
2019-03-09T21:02:46.789Z,2.13
2019-03-09T21:05:15.286Z,2.30
2019-03-09T21:07:43.710Z,2.50
2019-03-09T21:10:16.718Z,2.20
2019-03-09T21:13:05.105Z,2.80
2019-03-09T21:15:33.587Z,2.33
2019-03-09T21:18:02.096Z,3.23
2019-03-09T21:20:30.502Z,2.57
2019-03-09T21:22:58.987Z,2.37
2019-03-09T21:25:27.469Z,2.10
2019-03-09T21:27:55.972Z,2.57
2019-03-09T21:30:24.499Z,2.17
2019-03-09T21:32:52.908Z,2.10
2019-03-09T21:35:21.441Z,2.13
2019-03-09T21:37:49.863Z,2.30
2019-03-09T21:40:19.036Z,2.10
2019-03-09T21:42:47.467Z,2.10
2019-03-09T21:45:16.011Z,2.50
2019-03-09T21:47:44.447Z,2.00
2019-03-09T21:50:15.906Z,2.40
2019-03-09T21:52:44.394Z,2.23
2019-03-09T21:55:14.029Z,2.67
2019-03-09T21:57:42.468Z,2.53
2019-03-09T22:00:18.511Z,2.47
2019-03-09T22:02:46.930Z,1.90
2019-03-09T22:05:15.352Z,2.40
2019-03-09T22:07:43.743Z,1.90
2019-03-09T22:10:13.210Z,2.33
2019-03-09T22:12:41.791Z,3.03
2019-03-09T22:15:15.781Z,2.50
2019-03-09T22:17:45.148Z,2.93
2019-03-09T22:20:15.038Z,1.90
2019-03-09T22:22:43.512Z,1.90
2019-03-09T22:25:16.762Z,2.60
2019-03-09T22:27:45.184Z,2.10
2019-03-09T22:30:23.181Z,2.47
2019-03-09T22:32:51.712Z,2.20
2019-03-09T22:35:20.139Z,2.40
2019-03-09T22:37:48.594Z,2.90
2019-03-09T22:40:19.230Z,2.10
2019-03-09T22:42:47.645Z,2.63
2019-03-09T22:45:16.457Z,2.50
2019-03-09T22:47:45.167Z,2.63
2019-03-09T22:50:16.659Z,2.30
2019-03-09T22:52:45.098Z,2.47
2019-03-09T22:55:14.735Z,2.20
2019-03-09T22:57:43.229Z,2.63
2019-03-09T23:00:14.933Z,3.87
2019-03-09T23:02:44.876Z,2.83
2019-03-09T23:05:13.853Z,2.60
2019-03-09T23:07:42.259Z,3.87
2019-03-09T23:10:25.680Z,2.57
2019-03-09T23:12:54.095Z,2.80
2019-03-09T23:15:22.493Z,2.30
2019-03-09T23:17:50.999Z,2.20
2019-03-09T23:20:19.577Z,2.70
2019-03-09T23:22:47.991Z,2.90
2019-03-09T23:25:16.848Z,2.97
2019-03-09T23:27:45.330Z,2.80
2019-03-09T23:30:18.214Z,2.87
2019-03-09T23:32:48.406Z,2.80
2019-03-09T23:35:17.055Z,2.70
2019-03-09T23:37:49.083Z,2.70
2019-03-09T23:40:19.783Z,2.90
2019-03-09T23:42:48.284Z,2.90
2019-03-09T23:45:21.961Z,3.00
2019-03-09T23:47:50.519Z,2.80
2019-03-09T23:50:19.262Z,2.00
2019-03-09T23:52:47.674Z,3.80
2019-03-09T23:55:22.036Z,2.67
2019-03-09T23:57:50.059Z,2.53
